Overview Statistics Trail Chart Weather Telemetry Raw packets
 

This is the latest recevied weather packets stored in our database for station/object LKCS. If no packets are shown the sender has not sent any weather packets the latest 10 day(s).

<< 4 5 6 7 8 9 10 >>
Time Temp. Humidity Pressure Rain* Wind** Luminosity Snow
1788566586 23.89° C 50% 1014 hPa - - - -
1788564751 25° C 47% 1014 hPa - - - -
1788562968 25° C 47% 1014 hPa - - - -
1788561151 25° C 47% 1014 hPa - - - -
1788559368 22.22° C 56% 1013 hPa - - - -
1788557551 22.22° C 56% 1013 hPa - - - -
1788555788 22.22° C 56% 1013 hPa - - - -
1788553985 18.89° C 68% 1013 hPa - - - -
1788552187 20° C 64% 1014 hPa - - - -
1788550358 20° C 64% 1014 hPa - - - -
1788548570 22.22° C 56% 1013 hPa - - - -
1788546758 22.78° C 53% 1013 hPa - - - -
1788544986 23.89° C 50% 1013 hPa - - - -
1788543158 26.11° C 44% 1013 hPa - - - -
1788541386 27.78° C 39% 1013 hPa - - - -
1788539565 27.78° C 39% 1013 hPa - - - -
1788537787 28.89° C 37% 1013 hPa - - - -
1788535986 28.89° C 37% 1014 hPa - - - -
1788534160 28.89° C 37% 1014 hPa - - - -
1788532358 28.89° C 37% 1014 hPa - - - -
1788530594 28.89° C 42% 1015 hPa - - - -
1788528758 27.78° C 42% 1015 hPa - - - -
1788526975 27.78° C 42% 1016 hPa - - - -
1788525158 27.22° C 47% 1016 hPa - - - -
1788523369 27.22° C 44% 1017 hPa - - - -

* Rain since midnight (hover to see other rain measurements)
** Current wind speed in m/s (hover to see current wind gust speed)